Time;durP1;ratioP1;P1;durP2;ratioP2;P2;SDS_P1;SDS_P2;PMS_P1;PMS_P2;Temp;Humidity;BMP_temperature;BMP_pressure;BME280_temperature;BME280_humidity;BME280_pressure;Samples;Min_cycle;Max_cycle;Signal;HPM_P1;HPM_P2
2023/03/18 00:00:35;;;;;;;1.48;1.08;;;10.40;52.00;;;;;;2076704;28;20268;-63
2023/03/18 00:01:41;;;;;;;1.77;1.10;;;10.40;52.30;;;;;;2076295;28;20173;-65
2023/03/18 00:02:47;;;;;;;1.48;0.90;;;10.40;52.50;;;;;;2079917;28;20264;-62
2023/03/18 00:03:53;;;;;;;1.80;0.90;;;10.40;52.30;;;;;;2076610;28;20256;-62
2023/03/18 00:04:59;;;;;;;3.40;3.13;;;10.40;52.20;;;;;;2081928;28;20176;-61
2023/03/18 00:06:14;;;;;;;2.45;0.90;;;10.30;51.90;;;;;;2076686;28;20181;-62
2023/03/18 00:07:20;;;;;;;0.98;0.80;;;10.40;52.30;;;;;;2076349;28;20538;-62
2023/03/18 00:08:26;;;;;;;1.58;1.00;;;10.40;52.80;;;;;;2079098;28;20283;-62
2023/03/18 00:09:31;;;;;;;2.97;0.80;;;10.50;51.70;;;;;;2075982;28;20224;-63
2023/03/18 00:10:38;;;;;;;1.40;1.30;;;10.50;52.20;;;;;;2085331;28;20195;-62
2023/03/18 00:11:44;;;;;;;2.50;0.90;;;10.50;52.00;;;;;;2080053;28;20185;-62
2023/03/18 00:12:52;;;;;;;3.97;1.13;;;10.40;52.10;;;;;;2081907;28;20231;-63
2023/03/18 00:13:58;;;;;;;1.77;1.00;;;10.40;52.30;;;;;;2076397;28;20190;-63
2023/03/18 00:15:11;;;;;;;2.05;0.82;;;10.40;52.40;;;;;;2084581;28;20181;-62
2023/03/18 00:16:17;;;;;;;1.30;0.90;;;10.40;52.40;;;;;;2077928;28;20266;-63
2023/03/18 00:17:22;;;;;;;1.85;1.02;;;10.40;52.20;;;;;;2081262;28;20212;-62
2023/03/18 00:18:30;;;;;;;2.97;1.10;;;10.30;52.10;;;;;;2081252;28;20181;-63
2023/03/18 00:19:36;;;;;;;3.10;1.00;;;10.30;52.30;;;;;;2082573;28;20189;-63
2023/03/18 00:20:44;;;;;;;1.73;1.00;;;10.40;52.20;;;;;;2087548;28;20211;-63
2023/03/18 00:21:50;;;;;;;1.13;0.70;;;10.40;52.90;;;;;;2077771;28;20185;-63
2023/03/18 00:22:56;;;;;;;1.80;0.95;;;10.30;53.00;;;;;;2077208;28;20188;-61
2023/03/18 00:24:02;;;;;;;2.47;1.02;;;10.30;53.30;;;;;;2070679;28;20186;-61
2023/03/18 00:25:06;;;;;;;2.20;1.00;;;10.40;53.00;;;;;;2085798;28;20612;-63
2023/03/18 00:26:09;;;;;;;2.53;1.10;;;10.40;52.90;;;;;;2078057;28;20680;-61
2023/03/18 00:27:15;;;;;;;1.88;0.90;;;10.40;52.60;;;;;;2081475;28;20215;-62
2023/03/18 00:28:22;;;;;;;1.80;1.08;;;10.40;52.90;;;;;;2080458;28;20267;-63
2023/03/18 00:29:29;;;;;;;1.25;1.05;;;10.40;53.20;;;;;;2080931;28;20191;-65
2023/03/18 00:30:38;;;;;;;1.80;1.70;;;10.30;53.30;;;;;;2075513;28;20183;-65
2023/03/18 00:31:45;;;;;;;1.98;1.17;;;10.20;53.60;;;;;;2071071;28;20178;-65
2023/03/18 00:32:50;;;;;;;2.70;1.63;;;10.20;53.90;;;;;;2083474;28;20246;-63
2023/03/18 00:33:56;;;;;;;2.40;1.10;;;10.20;54.10;;;;;;2082111;28;20296;-64
2023/03/18 00:35:02;;;;;;;4.35;1.33;;;10.20;53.90;;;;;;2089800;28;20649;-65
2023/03/18 00:36:05;;;;;;;2.67;1.10;;;10.10;54.20;;;;;;2079868;28;20223;-65
2023/03/18 00:37:09;;;;;;;1.20;1.00;;;10.00;54.40;;;;;;2085398;28;20747;-63
2023/03/18 00:38:19;;;;;;;3.85;1.30;;;10.00;54.50;;;;;;2078993;28;20181;-63
2023/03/18 00:39:27;;;;;;;2.38;1.17;;;10.00;54.80;;;;;;2081704;28;20173;-64
2023/03/18 00:40:41;;;;;;;3.00;1.20;;;10.10;54.60;;;;;;2083839;28;20184;-64
2023/03/18 00:41:47;;;;;;;2.10;0.85;;;10.00;54.80;;;;;;2080556;28;20200;-64
2023/03/18 00:43:00;;;;;;;1.67;1.05;;;10.10;54.70;;;;;;2083653;28;20206;-62
2023/03/18 00:44:05;;;;;;;1.50;1.10;;;10.10;55.30;;;;;;2078000;28;20185;-64
2023/03/18 00:45:10;;;;;;;1.90;1.00;;;10.00;55.10;;;;;;2085270;28;20207;-65
2023/03/18 00:46:22;;;;;;;3.33;1.50;;;10.00;54.90;;;;;;2075277;28;20723;-63
2023/03/18 00:47:27;;;;;;;2.20;1.33;;;10.10;55.00;;;;;;2077854;28;20192;-62
2023/03/18 00:48:33;;;;;;;1.70;1.30;;;10.00;55.00;;;;;;2077732;28;20242;-62
2023/03/18 00:49:39;;;;;;;3.72;1.05;;;10.00;55.20;;;;;;2077929;28;20878;-63
2023/03/18 00:50:45;;;;;;;2.05;1.02;;;9.90;55.40;;;;;;2077768;28;20174;-62
2023/03/18 00:51:52;;;;;;;2.05;1.05;;;9.90;55.50;;;;;;2081145;28;20185;-62
2023/03/18 00:52:58;;;;;;;2.03;1.02;;;9.90;55.90;;;;;;2077612;28;20292;-62
2023/03/18 00:54:06;;;;;;;3.63;1.10;;;9.90;56.50;;;;;;2077423;28;20661;-62
2023/03/18 00:55:09;;;;;;;2.70;1.30;;;10.00;56.30;;;;;;2077545;28;20214;-62
2023/03/18 00:56:18;;;;;;;3.28;1.50;;;10.00;55.40;;;;;;2076978;28;20316;-60
2023/03/18 00:57:24;;;;;;;1.90;0.98;;;10.00;55.30;;;;;;2071010;28;20271;-60
2023/03/18 00:58:30;;;;;;;1.67;1.10;;;10.00;55.60;;;;;;2073378;28;20190;-61
2023/03/18 00:59:36;;;;;;;1.63;1.00;;;10.00;55.20;;;;;;2077585;28;20216;-59
2023/03/18 01:00:42;;;;;;;1.60;1.10;;;9.90;55.40;;;;;;2077881;28;20185;-61
2023/03/18 01:01:47;;;;;;;2.75;1.50;;;9.80;55.60;;;;;;2077305;28;20682;-61
2023/03/18 01:02:53;;;;;;;3.03;1.10;;;9.70;56.20;;;;;;2077944;28;21033;-61
2023/03/18 01:04:00;;;;;;;3.17;1.70;;;9.70;56.50;;;;;;2078008;28;20200;-60
2023/03/18 01:05:04;;;;;;;2.78;1.70;;;9.80;56.70;;;;;;2077895;28;20209;-61
2023/03/18 01:06:13;;;;;;;2.28;1.50;;;9.80;56.30;;;;;;2077895;28;20197;-60
2023/03/18 01:07:18;;;;;;;2.10;1.15;;;9.80;56.00;;;;;;2077524;28;20211;-62
2023/03/18 01:08:25;;;;;;;3.08;1.20;;;9.80;55.90;;;;;;2077730;28;20193;-62
2023/03/18 01:09:32;;;;;;;1.65;1.10;;;9.80;56.30;;;;;;2077531;28;20249;-62
2023/03/18 01:10:38;;;;;;;1.88;1.23;;;9.80;56.30;;;;;;2077613;28;20197;-63
2023/03/18 01:11:44;;;;;;;2.45;1.20;;;9.80;56.10;;;;;;2077203;28;20188;-61
2023/03/18 01:12:50;;;;;;;3.70;1.50;;;9.70;55.90;;;;;;2077550;28;20736;-62
2023/03/18 01:13:56;;;;;;;2.83;1.50;;;9.60;56.00;;;;;;2077611;28;20937;-59
2023/03/18 01:15:04;;;;;;;2.75;1.20;;;9.70;57.00;;;;;;2069091;28;20213;-61
2023/03/18 01:16:09;;;;;;;1.88;1.10;;;9.70;56.30;;;;;;2069742;28;20213;-60
2023/03/18 01:17:15;;;;;;;2.28;1.27;;;9.70;55.80;;;;;;2077738;28;20205;-61
2023/03/18 01:18:22;;;;;;;1.52;1.00;;;9.70;55.90;;;;;;2077715;28;20217;-59
2023/03/18 01:19:28;;;;;;;3.42;1.00;;;9.70;56.30;;;;;;2077436;28;20265;-61
2023/03/18 01:20:34;;;;;;;2.15;1.23;;;9.60;56.40;;;;;;2077518;28;20186;-61
2023/03/18 01:21:40;;;;;;;2.05;1.15;;;9.60;57.40;;;;;;2077038;28;20654;-62
2023/03/18 01:22:46;;;;;;;4.72;1.23;;;9.70;56.20;;;;;;2077266;28;20196;-60
2023/03/18 01:23:52;;;;;;;1.83;1.05;;;9.60;56.20;;;;;;2077501;28;20236;-61
2023/03/18 01:24:57;;;;;;;2.58;1.25;;;9.50;56.50;;;;;;2077634;28;20189;-60
2023/03/18 01:26:04;;;;;;;3.92;1.50;;;9.50;56.70;;;;;;2077716;28;20689;-61
2023/03/18 01:27:09;;;;;;;3.22;1.20;;;9.50;56.60;;;;;;2077685;28;20185;-61
2023/03/18 01:28:16;;;;;;;2.17;1.10;;;9.40;57.30;;;;;;2077611;28;20223;-61
2023/03/18 01:29:22;;;;;;;2.17;1.25;;;9.40;57.10;;;;;;2077464;28;20220;-61
2023/03/18 01:30:29;;;;;;;2.70;1.35;;;9.40;56.90;;;;;;2077352;28;20193;-62
2023/03/18 01:31:36;;;;;;;2.25;1.10;;;9.50;56.90;;;;;;2076997;28;20212;-60
2023/03/18 01:32:42;;;;;;;2.65;1.33;;;9.60;56.80;;;;;;2074000;28;20229;-62
2023/03/18 01:33:48;;;;;;;2.60;1.10;;;9.50;56.00;;;;;;2077726;28;20213;-60
2023/03/18 01:34:54;;;;;;;2.58;1.10;;;9.50;56.20;;;;;;2077758;28;20234;-61
2023/03/18 01:36:02;;;;;;;2.65;1.42;;;9.50;56.00;;;;;;2077518;28;20688;-59
2023/03/18 01:37:04;;;;;;;1.92;1.35;;;9.40;56.50;;;;;;2077139;28;20220;-63
2023/03/18 01:38:11;;;;;;;2.22;1.20;;;9.40;56.30;;;;;;2077214;28;20185;-61
2023/03/18 01:39:17;;;;;;;2.17;1.15;;;9.50;56.20;;;;;;2077416;28;20575;-62
2023/03/18 01:40:22;;;;;;;3.17;1.10;;;9.50;55.90;;;;;;2077430;28;20195;-59
2023/03/18 01:41:29;;;;;;;1.70;1.00;;;9.60;55.80;;;;;;2076931;28;20262;-61
2023/03/18 01:42:35;;;;;;;2.13;1.10;;;9.50;55.60;;;;;;2077243;28;20619;-61
2023/03/18 01:43:42;;;;;;;1.10;1.00;;;9.40;55.60;;;;;;2077455;28;20665;-60
2023/03/18 01:44:48;;;;;;;1.25;0.90;;;9.50;56.00;;;;;;2077609;28;20261;-61
2023/03/18 01:45:57;;;;;;;1.15;0.82;;;9.50;56.00;;;;;;2077635;28;20189;-62
2023/03/18 01:47:03;;;;;;;2.70;0.95;;;9.50;55.80;;;;;;2077574;28;20181;-62
2023/03/18 01:48:04;;;;;;;2.43;1.10;;;9.40;56.20;;;;;;2077692;28;20639;-62
2023/03/18 01:49:14;;;;;;;2.13;1.20;;;9.30;56.40;;;;;;2077440;28;20188;-62
2023/03/18 01:50:42;;;;;;;2.55;0.98;;;9.30;56.60;;;;;;2076968;28;20316;-58
2023/03/18 01:51:58;;;;;;;2.10;1.10;;;9.40;55.90;;;;;;2071946;28;20610;-62
2023/03/18 01:53:10;;;;;;;1.42;1.08;;;9.40;55.70;;;;;;2065272;28;20186;-63
2023/03/18 01:54:18;;;;;;;2.05;1.00;;;9.50;56.00;;;;;;2062886;28;20190;-62
2023/03/18 01:55:29;;;;;;;3.80;1.10;;;9.50;56.30;;;;;;2070239;28;20185;-62
2023/03/18 01:56:38;;;;;;;1.25;0.98;;;9.50;55.90;;;;;;2068634;28;20191;-62
2023/03/18 01:57:45;;;;;;;1.67;1.00;;;9.30;56.10;;;;;;2070281;28;20244;-62
2023/03/18 01:58:56;;;;;;;1.20;1.10;;;9.30;56.20;;;;;;2076925;28;20185;-61
2023/03/18 02:00:04;;;;;;;1.52;1.00;;;9.30;56.30;;;;;;2071754;28;20257;-61
2023/03/18 02:01:17;;;;;;;1.85;1.08;;;9.30;56.50;;;;;;2070127;28;20181;-61
2023/03/18 02:02:25;;;;;;;1.38;0.95;;;9.30;56.10;;;;;;2060248;28;20226;-61
2023/03/18 02:03:30;;;;;;;1.45;1.08;;;9.20;56.30;;;;;;2063104;28;20249;-62
2023/03/18 02:04:43;;;;;;;1.65;0.90;;;9.20;56.10;;;;;;2068777;28;20186;-62
2023/03/18 02:05:50;;;;;;;1.92;0.90;;;9.20;56.50;;;;;;2069012;28;20808;-61
2023/03/18 02:06:58;;;;;;;2.65;1.02;;;9.20;56.20;;;;;;2070429;28;20194;-62
2023/03/18 02:08:04;;;;;;;1.65;0.88;;;9.20;56.30;;;;;;2077443;28;20243;-62
2023/03/18 02:09:10;;;;;;;1.27;1.02;;;9.20;55.80;;;;;;2077271;28;20185;-62
2023/03/18 02:10:27;;;;;;;3.35;1.10;;;9.20;55.80;;;;;;2077124;28;20189;-62
2023/03/18 02:11:37;;;;;;;3.15;1.05;;;9.10;56.20;;;;;;2068210;28;20259;-62
2023/03/18 02:12:51;;;;;;;2.22;1.23;;;9.10;56.80;;;;;;2070361;28;20182;-61
2023/03/18 02:13:58;;;;;;;1.13;0.93;;;9.10;56.10;;;;;;2068768;28;20193;-61
2023/03/18 02:15:10;;;;;;;2.55;1.20;;;9.10;56.40;;;;;;2069268;28;20268;-61
2023/03/18 02:16:27;;;;;;;1.23;1.00;;;9.10;56.60;;;;;;2068004;28;20696;-62
2023/03/18 02:17:40;;;;;;;1.90;1.10;;;9.00;56.60;;;;;;2065742;28;20196;-61
2023/03/18 02:18:59;;;;;;;2.20;0.98;;;8.90;57.10;;;;;;2061566;28;20220;-61
2023/03/18 02:20:33;;;;;;;1.50;0.82;;;9.00;57.00;;;;;;2071811;28;20601;-62
2023/03/18 02:22:09;;;;;;;1.50;0.90;;;9.00;56.90;;;;;;2068689;28;20221;-61
2023/03/18 02:23:37;;;;;;;1.98;1.10;;;9.10;56.40;;;;;;2072751;28;20702;-62
2023/03/18 02:25:09;;;;;;;1.90;1.30;;;9.10;55.70;;;;;;2078965;28;20216;-60
2023/03/18 02:27:00;;;;;;;2.15;1.10;;;9.10;55.70;;;;;;2077175;28;20272;-62
2023/03/18 02:28:11;;;;;;;1.77;0.93;;;9.20;56.00;;;;;;2057575;28;20637;-62
2023/03/18 02:29:20;;;;;;;3.15;1.15;;;9.20;55.70;;;;;;2048584;28;21029;-63
2023/03/18 02:30:38;;;;;;;4.13;1.10;;;9.20;55.90;;;;;;2070337;28;20198;-60
2023/03/18 02:31:45;;;;;;;3.75;1.40;;;9.10;56.70;;;;;;2068745;28;20193;-62
2023/03/18 02:32:52;;;;;;;1.52;1.00;;;9.20;56.30;;;;;;2071222;28;20178;-62
2023/03/18 02:33:59;;;;;;;2.33;1.13;;;9.10;56.30;;;;;;2079797;28;20293;-62
2023/03/18 02:35:09;;;;;;;1.58;1.10;;;9.10;57.30;;;;;;2078577;28;20184;-62
2023/03/18 02:36:24;;;;;;;1.63;1.20;;;9.10;57.00;;;;;;2076854;28;20193;-62
2023/03/18 02:37:29;;;;;;;2.95;1.33;;;9.10;55.70;;;;;;2076866;28;20231;-61
2023/03/18 02:38:43;;;;;;;2.85;1.20;;;9.10;56.00;;;;;;2076999;28;20552;-62
2023/03/18 02:39:49;;;;;;;1.45;1.00;;;9.10;56.60;;;;;;2077022;28;20189;-61
2023/03/18 02:40:55;;;;;;;4.40;1.52;;;9.10;56.70;;;;;;2077262;28;20185;-62
2023/03/18 02:42:01;;;;;;;2.00;1.15;;;9.10;56.70;;;;;;2076797;28;20297;-62
2023/03/18 02:43:34;;;;;;;2.83;1.40;;;9.00;58.10;;;;;;2080387;28;20603;-62
2023/03/18 02:44:44;;;;;;;1.25;0.90;;;8.90;56.70;;;;;;2062560;28;20211;-62
2023/03/18 02:46:38;;;;;;;1.58;0.90;;;8.90;56.70;;;;;;2076699;28;20224;-60
2023/03/18 02:47:46;;;;;;;3.85;0.90;;;8.90;57.00;;;;;;2053196;28;20187;-62
2023/03/18 02:48:52;;;;;;;2.45;1.10;;;9.00;56.50;;;;;;2074223;28;20191;-62
2023/03/18 02:49:58;;;;;;;1.30;1.00;;;9.10;56.00;;;;;;2076714;28;20195;-62
2023/03/18 02:51:06;;;;;;;0.88;0.80;;;9.10;55.30;;;;;;2076869;28;20189;-61
2023/03/18 02:52:09;;;;;;;4.03;1.20;;;9.10;55.50;;;;;;2076434;28;20694;-62
2023/03/18 02:53:15;;;;;;;1.60;0.90;;;9.20;55.30;;;;;;2077140;28;20212;-62
2023/03/18 02:54:26;;;;;;;2.15;1.00;;;9.10;55.40;;;;;;2077051;28;20191;-63
2023/03/18 02:55:32;;;;;;;2.33;1.30;;;9.10;56.20;;;;;;2077688;28;20239;-62
2023/03/18 02:56:40;;;;;;;3.50;1.00;;;9.00;55.50;;;;;;2076856;28;20183;-62
2023/03/18 02:57:46;;;;;;;1.08;0.90;;;8.90;55.50;;;;;;2076801;28;20280;-63
2023/03/18 02:58:52;;;;;;;2.55;0.90;;;9.00;55.70;;;;;;2076840;28;20673;-59
2023/03/18 02:59:57;;;;;;;4.68;0.90;;;9.20;55.00;;;;;;2076778;28;20229;-62
2023/03/18 03:01:05;;;;;;;2.38;0.98;;;9.20;54.80;;;;;;2076964;28;20186;-62
2023/03/18 03:02:10;;;;;;;1.33;0.90;;;9.20;54.70;;;;;;2076800;28;20213;-63
2023/03/18 03:03:16;;;;;;;2.33;0.93;;;9.20;54.50;;;;;;2077265;28;20196;-60
2023/03/18 03:04:25;;;;;;;1.65;0.80;;;9.20;54.80;;;;;;2076638;28;20184;-62
2023/03/18 03:05:33;;;;;;;2.60;0.85;;;9.30;55.60;;;;;;2076743;28;20192;-62
2023/03/18 03:06:40;;;;;;;2.47;0.82;;;9.40;58.00;;;;;;2076689;28;20595;-60
2023/03/18 03:07:46;;;;;;;1.52;0.73;;;9.40;59.30;;;;;;2076754;28;20173;-62
2023/03/18 03:08:52;;;;;;;2.30;0.88;;;9.30;60.00;;;;;;2076587;28;20279;-61
2023/03/18 03:09:58;;;;;;;1.45;0.80;;;9.30;60.10;;;;;;2076761;28;20185;-61
2023/03/18 03:11:04;;;;;;;2.67;0.90;;;9.20;60.40;;;;;;2076663;28;20200;-60
2023/03/18 03:12:09;;;;;;;2.15;0.90;;;9.10;62.00;;;;;;2076476;28;20304;-62
2023/03/18 03:13:16;;;;;;;1.23;1.00;;;9.00;61.20;;;;;;2076583;28;20651;-62
2023/03/18 03:14:21;;;;;;;2.97;1.15;;;9.00;61.60;;;;;;2076047;28;20201;-62
2023/03/18 03:15:28;;;;;;;1.27;1.02;;;9.00;61.80;;;;;;2076454;28;20236;-62
2023/03/18 03:16:34;;;;;;;1.30;0.80;;;9.00;62.40;;;;;;2076757;28;20212;-62
2023/03/18 03:17:40;;;;;;;1.05;0.70;;;8.90;63.30;;;;;;2076965;28;20627;-63
2023/03/18 03:18:46;;;;;;;1.67;0.80;;;8.90;63.70;;;;;;2076507;28;20643;-62
2023/03/18 03:19:52;;;;;;;1.83;0.82;;;8.80;64.10;;;;;;2076695;28;20205;-62
2023/03/18 03:20:58;;;;;;;1.92;1.00;;;8.80;62.60;;;;;;2076632;28;20250;-61
2023/03/18 03:22:04;;;;;;;1.60;1.08;;;8.70;63.00;;;;;;2076390;28;20208;-62
2023/03/18 03:23:12;;;;;;;1.55;0.90;;;8.50;63.80;;;;;;2076444;28;20200;-60
2023/03/18 03:24:17;;;;;;;1.50;0.88;;;8.30;60.00;;;;;;2076624;28;20189;-61
2023/03/18 03:25:25;;;;;;;3.60;0.80;;;8.20;58.30;;;;;;2076793;28;20186;-62
2023/03/18 03:26:33;;;;;;;2.50;1.10;;;8.30;59.40;;;;;;2077284;28;20660;-61
2023/03/18 03:27:40;;;;;;;1.83;1.00;;;8.40;60.30;;;;;;2077052;28;20196;-61
2023/03/18 03:28:46;;;;;;;2.38;0.90;;;8.30;59.10;;;;;;2076857;28;20226;-61
2023/03/18 03:29:53;;;;;;;2.58;0.90;;;8.30;60.00;;;;;;2076671;28;20194;-63
2023/03/18 03:30:59;;;;;;;0.90;0.80;;;8.30;61.00;;;;;;2076631;28;20187;-61
2023/03/18 03:32:05;;;;;;;2.60;1.40;;;8.40;61.50;;;;;;2067536;28;20224;-60
2023/03/18 03:33:09;;;;;;;7.68;1.20;;;8.50;61.30;;;;;;2068946;28;20192;-61
2023/03/18 03:34:15;;;;;;;1.52;0.95;;;8.50;59.00;;;;;;2076659;28;20238;-62
2023/03/18 03:35:22;;;;;;;2.75;0.80;;;8.40;59.10;;;;;;2076577;28;20184;-62
2023/03/18 03:36:27;;;;;;;3.15;1.00;;;8.50;60.00;;;;;;2076085;28;20208;-62
2023/03/18 03:37:34;;;;;;;2.92;1.77;;;8.50;59.80;;;;;;2075961;28;20212;-62
2023/03/18 03:38:40;;;;;;;1.60;1.00;;;8.60;59.50;;;;;;2076601;28;20210;-62
2023/03/18 03:39:46;;;;;;;1.95;0.90;;;8.60;60.00;;;;;;2076505;28;20231;-63
2023/03/18 03:40:53;;;;;;;2.45;0.80;;;8.60;57.60;;;;;;2079861;28;20530;-61
2023/03/18 03:41:58;;;;;;;2.20;0.80;;;8.70;58.70;;;;;;2076260;28;20271;-63
2023/03/18 03:43:05;;;;;;;2.45;0.80;;;8.70;58.00;;;;;;2074017;28;20278;-62
2023/03/18 03:44:10;;;;;;;1.08;0.80;;;8.70;57.30;;;;;;2075370;28;20192;-60
2023/03/18 03:45:18;;;;;;;4.85;1.50;;;8.70;57.60;;;;;;2077813;28;20280;-62
2023/03/18 03:46:24;;;;;;;1.60;1.10;;;8.80;59.70;;;;;;2076980;28;20187;-62
2023/03/18 03:47:30;;;;;;;1.25;1.10;;;8.80;58.70;;;;;;2076333;28;20216;-62
2023/03/18 03:48:38;;;;;;;1.10;1.00;;;8.70;57.60;;;;;;2076570;28;20216;-62
2023/03/18 03:49:43;;;;;;;1.05;0.90;;;8.70;56.80;;;;;;2076251;28;20182;-62
2023/03/18 03:50:50;;;;;;;2.97;0.90;;;8.80;55.80;;;;;;2076595;28;20192;-62
2023/03/18 03:51:56;;;;;;;1.85;1.00;;;8.80;55.20;;;;;;2067796;28;20551;-62
2023/03/18 03:53:03;;;;;;;2.85;0.90;;;8.80;55.30;;;;;;2069578;28;20201;-59
2023/03/18 03:54:04;;;;;;;2.08;0.95;;;8.80;54.70;;;;;;2077498;28;20676;-61
2023/03/18 03:55:13;;;;;;;2.42;1.10;;;8.60;55.50;;;;;;2078005;28;20185;-61
2023/03/18 03:56:19;;;;;;;1.55;0.80;;;8.70;55.60;;;;;;2078172;28;20192;-62
2023/03/18 03:57:26;;;;;;;3.08;1.20;;;8.70;55.50;;;;;;2077891;28;20241;-62
2023/03/18 03:58:33;;;;;;;1.25;0.93;;;8.70;55.90;;;;;;2078227;28;20181;-62
2023/03/18 03:59:38;;;;;;;2.22;0.93;;;8.70;56.10;;;;;;2079848;28;20177;-62
2023/03/18 04:00:44;;;;;;;2.30;1.23;;;8.80;56.90;;;;;;2079795;28;20176;-62
2023/03/18 04:01:50;;;;;;;1.60;0.90;;;8.70;57.70;;;;;;2081392;28;20184;-62
2023/03/18 04:02:55;;;;;;;1.88;0.90;;;8.80;57.60;;;;;;2078054;28;20242;-61
2023/03/18 04:04:01;;;;;;;2.60;0.90;;;8.90;57.20;;;;;;2077891;28;20274;-63
2023/03/18 04:05:06;;;;;;;1.58;0.85;;;8.80;57.40;;;;;;2080385;28;20191;-62
2023/03/18 04:06:10;;;;;;;1.30;0.93;;;8.70;57.30;;;;;;2077692;28;20286;-62
2023/03/18 04:07:15;;;;;;;0.90;0.80;;;8.70;58.00;;;;;;2078105;28;20810;-61
2023/03/18 04:08:21;;;;;;;2.08;1.00;;;8.70;58.10;;;;;;2077766;28;20197;-63
2023/03/18 04:09:27;;;;;;;1.85;0.90;;;8.70;58.60;;;;;;2078057;28;20578;-62
2023/03/18 04:10:35;;;;;;;1.85;0.90;;;8.50;59.90;;;;;;2077846;28;20191;-62
2023/03/18 04:11:41;;;;;;;1.50;0.90;;;8.30;59.10;;;;;;2077637;28;20231;-62
2023/03/18 04:12:48;;;;;;;2.45;1.08;;;8.20;60.00;;;;;;2078230;28;20285;-62
2023/03/18 04:13:54;;;;;;;0.98;0.80;;;8.20;59.80;;;;;;2077977;28;20182;-60
2023/03/18 04:15:00;;;;;;;3.20;1.15;;;8.10;59.40;;;;;;2078051;28;20195;-61
2023/03/18 04:16:06;;;;;;;1.77;0.88;;;8.10;60.70;;;;;;2077596;28;20196;-62
2023/03/18 04:17:10;;;;;;;0.90;0.80;;;8.10;62.10;;;;;;2077982;28;20624;-62
2023/03/18 04:18:16;;;;;;;2.03;0.95;;;8.10;62.50;;;;;;2077820;28;20236;-62
2023/03/18 04:19:21;;;;;;;5.28;1.00;;;8.10;62.10;;;;;;2077935;28;20188;-63
2023/03/18 04:20:27;;;;;;;1.58;0.80;;;8.00;62.40;;;;;;2077929;28;20186;-63
2023/03/18 04:21:33;;;;;;;1.55;0.90;;;8.00;63.70;;;;;;2077913;28;20189;-62
2023/03/18 04:22:40;;;;;;;3.33;0.90;;;7.80;65.80;;;;;;2078050;28;20221;-61
2023/03/18 04:23:46;;;;;;;1.85;0.80;;;7.80;67.40;;;;;;2078318;28;20289;-62
2023/03/18 04:24:52;;;;;;;1.42;1.00;;;7.80;68.10;;;;;;2078163;28;20182;-61
2023/03/18 04:25:58;;;;;;;1.80;1.40;;;7.80;68.30;;;;;;2078063;28;20271;-62
2023/03/18 04:27:04;;;;;;;1.95;0.95;;;7.80;68.70;;;;;;2078011;28;20211;-62
2023/03/18 04:28:09;;;;;;;1.00;0.90;;;7.70;69.00;;;;;;2077793;28;20236;-61
2023/03/18 04:29:15;;;;;;;0.80;0.70;;;7.60;69.40;;;;;;2081682;28;20192;-62
2023/03/18 04:30:22;;;;;;;2.00;0.70;;;7.60;69.90;;;;;;2078020;28;20561;-61
2023/03/18 04:31:28;;;;;;;3.17;0.80;;;7.50;69.80;;;;;;2077904;28;20319;-62
2023/03/18 04:32:33;;;;;;;1.27;0.70;;;7.40;70.10;;;;;;2078440;28;20210;-62
2023/03/18 04:33:39;;;;;;;3.90;1.10;;;7.40;70.20;;;;;;2078785;28;20215;-62
2023/03/18 04:34:45;;;;;;;0.93;0.80;;;7.40;70.40;;;;;;2077593;28;20174;-62
2023/03/18 04:35:52;;;;;;;3.00;0.90;;;7.20;70.80;;;;;;2077723;28;20544;-61
2023/03/18 04:36:57;;;;;;;2.50;1.00;;;7.10;71.20;;;;;;2077630;28;20251;-60
2023/03/18 04:38:03;;;;;;;1.50;0.70;;;7.10;71.50;;;;;;2077786;28;20220;-59
2023/03/18 04:39:05;;;;;;;2.05;0.98;;;7.00;72.20;;;;;;2077704;28;20189;-60
2023/03/18 04:40:11;;;;;;;2.33;0.90;;;6.90;72.30;;;;;;2077867;28;20185;-60
2023/03/18 04:41:16;;;;;;;3.15;0.90;;;6.90;72.60;;;;;;2081050;28;20193;-58
2023/03/18 04:42:22;;;;;;;6.32;1.05;;;7.00;72.80;;;;;;2077784;28;20211;-60
2023/03/18 04:43:28;;;;;;;1.48;0.77;;;6.90;74.30;;;;;;2077807;28;20246;-61
2023/03/18 04:44:34;;;;;;;2.00;0.90;;;6.80;75.10;;;;;;2077864;28;20239;-61
2023/03/18 04:45:40;;;;;;;2.97;1.02;;;6.80;75.10;;;;;;2078107;28;20193;-61
2023/03/18 04:46:46;;;;;;;2.40;1.00;;;6.60;75.30;;;;;;2078198;28;20181;-61
2023/03/18 04:47:52;;;;;;;1.13;0.73;;;6.50;76.00;;;;;;2078121;28;20173;-64
2023/03/18 04:48:58;;;;;;;0.70;0.70;;;6.30;77.30;;;;;;2081337;28;20184;-62
2023/03/18 04:50:05;;;;;;;3.65;0.93;;;6.20;78.70;;;;;;2077655;28;20177;-61
2023/03/18 04:51:11;;;;;;;2.65;0.90;;;6.10;79.10;;;;;;2077732;28;20190;-62
2023/03/18 04:52:17;;;;;;;2.40;0.80;;;6.10;79.60;;;;;;2077500;28;20197;-60
2023/03/18 04:53:23;;;;;;;0.90;0.75;;;6.00;80.00;;;;;;2077590;28;20557;-61
2023/03/18 04:54:29;;;;;;;2.42;0.80;;;5.90;80.90;;;;;;2077780;28;20255;-61
2023/03/18 04:55:35;;;;;;;2.50;0.90;;;5.90;81.00;;;;;;2077590;28;20186;-61
2023/03/18 04:56:42;;;;;;;3.50;0.90;;;5.80;81.70;;;;;;2080888;28;20268;-61
2023/03/18 04:57:49;;;;;;;2.08;1.00;;;5.90;81.70;;;;;;2077427;28;20201;-62
2023/03/18 04:58:55;;;;;;;0.90;0.90;;;5.90;81.30;;;;;;2077729;28;20220;-62
2023/03/18 05:00:01;;;;;;;2.97;0.90;;;6.00;81.30;;;;;;2077654;28;20243;-62
2023/03/18 05:01:04;;;;;;;2.58;0.80;;;5.90;81.50;;;;;;2077559;28;20618;-61
2023/03/18 05:02:09;;;;;;;1.80;1.20;;;6.00;81.20;;;;;;2077147;28;20220;-60
2023/03/18 05:03:15;;;;;;;1.23;1.00;;;5.90;81.20;;;;;;2077641;28;20189;-62
2023/03/18 05:04:22;;;;;;;4.20;1.02;;;5.90;81.30;;;;;;2081704;28;20212;-61
2023/03/18 05:05:28;;;;;;;1.67;0.93;;;5.90;81.50;;;;;;2077575;28;20181;-61
2023/03/18 05:06:34;;;;;;;3.45;1.00;;;5.80;82.00;;;;;;2077723;28;20180;-62
2023/03/18 05:07:41;;;;;;;1.27;0.90;;;5.70;82.40;;;;;;2077661;28;20185;-62
2023/03/18 05:08:46;;;;;;;1.25;0.70;;;5.70;82.80;;;;;;2077437;28;20535;-62
2023/03/18 05:09:53;;;;;;;2.50;0.75;;;5.70;82.60;;;;;;2077674;28;20198;-61
2023/03/18 05:10:58;;;;;;;1.17;0.80;;;5.60;83.20;;;;;;2077755;28;20194;-61
2023/03/18 05:12:05;;;;;;;2.17;0.95;;;5.60;84.40;;;;;;2077526;28;20586;-61
2023/03/18 05:13:09;;;;;;;3.33;1.00;;;5.50;84.40;;;;;;2077796;28;20580;-62
2023/03/18 05:14:15;;;;;;;3.85;1.02;;;5.50;84.70;;;;;;2077868;28;20611;-62
2023/03/18 05:15:21;;;;;;;1.33;1.10;;;5.40;84.90;;;;;;2069640;28;20193;-61
2023/03/18 05:16:27;;;;;;;1.67;0.90;;;5.40;85.20;;;;;;2070315;28;20236;-62
2023/03/18 05:17:34;;;;;;;0.90;0.90;;;5.40;85.60;;;;;;2077661;28;20239;-62
2023/03/18 05:18:40;;;;;;;1.88;0.95;;;5.30;86.10;;;;;;2077489;28;20960;-62
2023/03/18 05:19:47;;;;;;;1.20;0.80;;;5.30;86.10;;;;;;2077616;28;20176;-60
2023/03/18 05:20:53;;;;;;;1.70;1.10;;;5.20;86.40;;;;;;2077558;28;20250;-60
2023/03/18 05:21:59;;;;;;;2.17;1.00;;;5.20;86.80;;;;;;2077389;28;20786;-61
2023/03/18 05:23:04;;;;;;;1.38;0.95;;;5.20;87.30;;;;;;2077841;28;20193;-61
2023/03/18 05:24:09;;;;;;;2.47;0.90;;;5.20;88.10;;;;;;2077901;28;20204;-61
2023/03/18 05:25:15;;;;;;;1.33;0.82;;;5.20;88.90;;;;;;2077859;28;20195;-60
2023/03/18 05:26:22;;;;;;;1.10;0.70;;;5.20;90.10;;;;;;2081412;28;20181;-61
2023/03/18 05:27:28;;;;;;;2.70;1.10;;;5.20;90.00;;;;;;2077346;28;20610;-61
2023/03/18 05:28:34;;;;;;;1.08;0.95;;;5.20;90.20;;;;;;2077528;28;20193;-61
2023/03/18 05:29:40;;;;;;;1.00;0.80;;;5.20;90.60;;;;;;2077483;28;20189;-60
2023/03/18 05:30:46;;;;;;;1.48;0.90;;;5.10;90.70;;;;;;2077978;28;20288;-62
2023/03/18 05:31:52;;;;;;;4.15;1.20;;;5.00;90.50;;;;;;2077382;28;20197;-62
2023/03/18 05:32:57;;;;;;;2.38;1.00;;;5.00;90.60;;;;;;2077890;28;20215;-60
2023/03/18 05:34:05;;;;;;;1.60;1.00;;;5.00;90.50;;;;;;2077549;28;20199;-62
2023/03/18 05:35:10;;;;;;;2.25;1.00;;;5.00;90.60;;;;;;2077332;28;20220;-62
2023/03/18 05:36:16;;;;;;;2.03;1.38;;;5.00;90.70;;;;;;2077496;28;20845;-61
2023/03/18 05:37:22;;;;;;;3.15;1.10;;;5.00;90.70;;;;;;2077345;28;20705;-61
2023/03/18 05:38:27;;;;;;;1.83;0.73;;;5.00;90.70;;;;;;2077768;28;20263;-62
2023/03/18 05:39:33;;;;;;;3.00;0.98;;;5.00;90.70;;;;;;2077600;28;20267;-62
2023/03/18 05:40:39;;;;;;;1.60;0.90;;;4.90;90.70;;;;;;2077751;28;20192;-61
2023/03/18 05:41:45;;;;;;;1.10;0.85;;;4.90;91.00;;;;;;2076882;28;20188;-62
2023/03/18 05:42:51;;;;;;;2.38;1.35;;;4.90;91.20;;;;;;2078173;28;20272;-61
2023/03/18 05:43:56;;;;;;;2.10;0.90;;;4.90;91.10;;;;;;2081400;28;20181;-62
2023/03/18 05:45:04;;;;;;;2.47;0.90;;;4.90;91.30;;;;;;2077423;28;20681;-61
2023/03/18 05:46:10;;;;;;;3.80;0.95;;;4.80;91.20;;;;;;2077717;28;20200;-62
2023/03/18 05:47:16;;;;;;;0.65;0.65;;;4.80;91.30;;;;;;2077685;28;20749;-62
2023/03/18 05:48:22;;;;;;;1.92;0.90;;;4.80;91.40;;;;;;2077584;28;20193;-63
2023/03/18 05:49:28;;;;;;;3.00;1.00;;;4.80;91.40;;;;;;2076718;28;20195;-63
2023/03/18 05:50:38;;;;;;;2.47;1.20;;;4.70;91.40;;;;;;2076566;28;20191;-63
2023/03/18 05:51:45;;;;;;;0.68;0.68;;;4.80;91.50;;;;;;2076901;28;20194;-63
2023/03/18 05:52:50;;;;;;;2.15;1.00;;;4.80;91.50;;;;;;2077532;28;20295;-63
2023/03/18 05:53:56;;;;;;;1.42;0.80;;;4.70;91.50;;;;;;2077542;28;20228;-63
2023/03/18 05:55:03;;;;;;;1.67;0.77;;;4.80;91.40;;;;;;2077614;28;20207;-62